地図

経路データ

SID SEASON NUMBER BASIN SUBBASIN NAME ISO_TIME NATURE LAT LON WMO_WIND WMO_PRES WMO_AGENCY TRACK_TYPE DIST2LAND LANDFALL IFLAG USA_AGENCY USA_ATCF_ID USA_LAT USA_LON USA_RECORD USA_STATUS USA_WIND USA_PRES USA_SSHS USA_R34_NE USA_R34_SE USA_R34_SW USA_R34_NW USA_R50_NE USA_R50_SE USA_R50_SW USA_R50_NW USA_R64_NE USA_R64_SE USA_R64_SW USA_R64_NW USA_POCI USA_ROCI USA_RMW USA_EYE TOKYO_LAT TOKYO_LON TOKYO_GRADE TOKYO_WIND TOKYO_PRES TOKYO_R50_DIR TOKYO_R50_LONG TOKYO_R50_SHORT TOKYO_R30_DIR TOKYO_R30_LONG TOKYO_R30_SHORT TOKYO_LAND CMA_LAT CMA_LON CMA_CAT CMA_WIND CMA_PRES HKO_LAT HKO_LON HKO_CAT HKO_WIND HKO_PRES NEWDELHI_LAT NEWDELHI_LON NEWDELHI_GRADE NEWDELHI_WIND NEWDELHI_PRES NEWDELHI_CI NEWDELHI_DP NEWDELHI_POCI REUNION_LAT REUNION_LON REUNION_TYPE REUNION_WIND REUNION_PRES REUNION_TNUM REUNION_CI REUNION_RMW REUNION_R34_NE REUNION_R34_SE REUNION_R34_SW REUNION_R34_NW REUNION_R50_NE REUNION_R50_SE REUNION_R50_SW REUNION_R50_NW REUNION_R64_NE REUNION_R64_SE REUNION_R64_SW REUNION_R64_NW BOM_LAT BOM_LON BOM_TYPE BOM_WIND BOM_PRES BOM_TNUM BOM_CI BOM_RMW BOM_R34_NE BOM_R34_SE BOM_R34_SW BOM_R34_NW BOM_R50_NE BOM_R50_SE BOM_R50_SW BOM_R50_NW BOM_R64_NE BOM_R64_SE BOM_R64_SW BOM_R64_NW BOM_ROCI BOM_POCI BOM_EYE BOM_POS_METHOD BOM_PRES_METHOD NADI_LAT NADI_LON NADI_CAT NADI_WIND NADI_PRES WELLINGTON_LAT WELLINGTON_LON WELLINGTON_WIND WELLINGTON_PRES DS824_LAT DS824_LON DS824_STAGE DS824_WIND DS824_PRES TD9636_LAT TD9636_LON TD9636_STAGE TD9636_WIND TD9636_PRES TD9635_LAT TD9635_LON TD9635_WIND TD9635_PRES TD9635_ROCI NEUMANN_LAT NEUMANN_LON NEUMANN_CLASS NEUMANN_WIND NEUMANN_PRES MLC_LAT MLC_LON MLC_CLASS MLC_WIND MLC_PRES USA_GUST BOM_GUST BOM_GUST_PER REUNION_GUST REUNION_GUST_PER USA_SEAHGT USA_SEARAD_NE USA_SEARAD_SE USA_SEARAD_SW USA_SEARAD_NW STORM_SPEED STORM_DIR
1990219N10214 1990 62 EP CP AKA 1990-08-06 18:00:00 NR 10.0000 214.000 main 1421 1385 O_____________ jtwc_cp CP011990 10.0000 -146.000 20 -1 10 274
1990219N10214 1990 62 EP CP AKA 1990-08-06 21:00:00 NR 10.0376 213.515 main 1385 1341 P_____________ CP011990 10.0376 -146.485 20 -1 10 276
1990219N10214 1990 62 EP CP AKA 1990-08-07 00:00:00 NR 10.1000 213.000 main 1341 1298 O_____________ jtwc_cp CP011990 10.1000 -147.000 20 -1 11 279
1990219N10214 1990 62 EP CP AKA 1990-08-07 03:00:00 NR 10.2000 212.443 main 1292 1250 P_____________ CP011990 10.2000 -147.557 22 -1 11 280
1990219N10214 1990 62 EP CP AKA 1990-08-07 06:00:00 NR 10.3000 211.900 main 1250 1216 O_____________ jtwc_cp CP011990 10.3000 -148.100 25 -1 10 279
1990219N10214 1990 62 EP CP AKA 1990-08-07 09:00:00 NR 10.3573 211.442 main 1210 1186 P_____________ CP011990 10.3573 -148.558 25 -1 9 276
1990219N10214 1990 62 EP CP AKA 1990-08-07 12:00:00 NR 10.4000 211.000 main 1186 1163 O_____________ jtwc_cp CP011990 10.4000 -149.000 25 -1 9 276
1990219N10214 1990 62 EP CP AKA 1990-08-07 15:00:00 NR 10.4497 210.545 main 1158 1121 P_____________ CP011990 10.4497 -149.455 27 -1 10 276
1990219N10214 1990 62 EP CP AKA 1990-08-07 18:00:00 TS 10.5000 210.000 30 hurdat_epa main 1121 1083 O_____________ hurdat_epa CP011990 10.5000 -150.000 TD 30 -1 13 274
1990219N10214 1990 62 EP CP AKA 1990-08-07 21:00:00 TS 10.5428 209.247 main 1077 1032 P_____________ CP011990 10.5427 -150.728 TD 32 -1 15 274
1990219N10214 1990 62 EP CP AKA 1990-08-08 00:00:00 TS 10.6000 208.500 35 hurdat_epa main 1032 996 O_____________ hurdat_epa CP011990 10.6000 -151.500 TS 35 0 14 276
1990219N10214 1990 62 EP CP AKA 1990-08-08 03:00:00 TS 10.6848 207.835 main 991 958 P_____________ CP011990 10.6848 -152.165 TS 35 0 13 279
1990219N10214 1990 62 EP CP AKA 1990-08-08 06:00:00 TS 10.8000 207.200 35 hurdat_epa main 958 928 O_____________ hurdat_epa CP011990 10.8000 -152.800 TS 35 0 13 281
1990219N10214 1990 62 EP CP AKA 1990-08-08 09:00:00 TS 10.9425 206.535 main 926 889 P_____________ CP011990 10.9425 -153.465 TS 35 0 13 283
1990219N10214 1990 62 EP CP AKA 1990-08-08 12:00:00 TS 11.1000 205.900 35 hurdat_epa main 889 869 O_____________ hurdat_epa CP011990 11.1000 -154.100 TS 35 0 12 284
1990219N10214 1990 62 EP CP AKA 1990-08-08 15:00:00 TS 11.2424 205.327 main 868 841 P_____________ CP011990 11.2424 -154.673 TS 35 0 11 286
1990219N10214 1990 62 EP CP AKA 1990-08-08 18:00:00 TS 11.4000 204.800 35 hurdat_epa main 841 817 O_____________ hurdat_epa CP011990 11.4000 -155.200 TS 35 0 11 290
1990219N10214 1990 62 EP CP AKA 1990-08-08 21:00:00 TS 11.6073 204.300 main 817 795 P_____________ CP011990 11.6073 -155.700 TS 35 0 11 292
1990219N10214 1990 62 EP CP AKA 1990-08-09 00:00:00 TS 11.8000 203.800 35 hurdat_epa main 796 787 O_____________ hurdat_epa CP011990 11.8000 -156.200 TS 35 0 11 288
1990219N10214 1990 62 EP CP AKA 1990-08-09 03:00:00 TS 11.9374 203.265 main 790 781 P_____________ CP011990 11.9374 -156.735 TS 37 0 11 281
1990219N10214 1990 62 EP CP AKA 1990-08-09 06:00:00 TS 12.0000 202.700 40 hurdat_epa main 791 791 O_____________ hurdat_epa CP011990 12.0000 -157.300 TS 40 0 11 273
1990219N10214 1990 62 EP CP AKA 1990-08-09 09:00:00 TS 11.9872 202.137 main 807 807 P_____________ CP011990 11.9872 -157.863 TS 42 0 12 265
1990219N10214 1990 62 EP CP AKA 1990-08-09 12:00:00 TS 11.9000 201.500 45 hurdat_epa main 839 839 O_____________ hurdat_epa CP011990 11.9000 -158.500 TS 45 0 14 261
1990219N10214 1990 62 EP CP AKA 1990-08-09 15:00:00 TS 11.7650 200.730 main 883 883 P_____________ CP011990 11.7650 -159.270 TS 47 0 16 259
1990219N10214 1990 62 EP CP AKA 1990-08-09 18:00:00 TS 11.6000 199.900 50 hurdat_epa main 943 943 O_____________ hurdat_epa CP011990 11.6000 -160.100 TS 50 0 16 259
1990219N10214 1990 62 EP CP AKA 1990-08-09 21:00:00 TS 11.4424 199.085 main 1007 1007 P_____________ CP011990 11.4424 -160.915 TS 50 0 16 259
1990219N10214 1990 62 EP CP AKA 1990-08-10 00:00:00 TS 11.3000 198.300 50 hurdat_epa main 1066 1066 O_____________ hurdat_epa CP011990 11.3000 -161.700 TS 50 0 15 259
1990219N10214 1990 62 EP CP AKA 1990-08-10 03:00:00 TS 11.1622 197.585 main 1122 1122 P_____________ CP011990 11.1622 -162.415 TS 50 0 14 262
1990219N10214 1990 62 EP CP AKA 1990-08-10 06:00:00 TS 11.1000 196.900 50 hurdat_epa main 1180 1180 O_____________ hurdat_epa CP011990 11.1000 -163.100 TS 50 0 13 270
1990219N10214 1990 62 EP CP AKA 1990-08-10 09:00:00 TS 11.1583 196.236 main 1224 1224 P_____________ CP011990 11.1620 -163.762 TS 52 0 14 278
1990219N10214 1990 62 EP CP AKA 1990-08-10 12:00:00 TS 11.3000 195.500 55 hurdat_epa main 1269 1269 O_____________ hurdat_epa CP011990 11.3000 -164.500 TS 55 0 17 280
1990219N10214 1990 62 EP CP AKA 1990-08-10 15:00:00 TS 11.4359 194.574 main 1327 1322 P_____________ CP011990 11.4052 -165.435 TS 55 0 19 281
1990219N10214 1990 62 EP CP AKA 1990-08-10 18:00:00 TS 11.6500 193.625 55 hurdat_epa main 1349 1349 O_____________ hurdat_epa CP011990 11.6000 -166.400 TS 55 0 18 288
1990219N10214 1990 62 EP CP AKA 1990-08-10 21:00:00 TS 12.0067 192.798 main 1367 1364 P_____________ CP011990 11.9924 -167.260 TS 50 0 17 296
1990219N10214 1990 62 EP CP AKA 1990-08-11 00:00:00 TS 12.3750 192.075 45 hurdat_epa main 1375 1375 O_____________ hurdat_epa CP011990 12.4000 -168.000 TS 45 0 15 295
1990219N10214 1990 62 EP CP AKA 1990-08-11 03:00:00 TS 12.6191 191.454 main 1398 1397 P_____________ CP011990 12.6371 -168.588 TS 45 0 12 290
1990219N10214 1990 62 EP CP AKA 1990-08-11 06:00:00 TS 12.8000 190.900 45 hurdat_epa main 1425 1425 O_____________ hurdat_epa CP011990 12.8000 -169.100 TS 45 0 11 287
1990219N10214 1990 62 EP CP AKA 1990-08-11 09:00:00 TS 12.9592 190.344 main 1453 1453 P_____________ CP011990 12.9574 -169.650 TS 40 0 11 286
1990219N10214 1990 62 EP CP AKA 1990-08-11 12:00:00 TS 13.1000 189.800 35 hurdat_epa main 1484 1484 O_____________ hurdat_epa CP011990 13.1000 -170.200 TS 35 0 11 285
1990219N10214 1990 62 EP CP AKA 1990-08-11 15:00:00 TS 13.2423 189.257 main 1516 1516 P_____________ CP011990 13.2423 -170.743 TS 35 0 11 286
1990219N10214 1990 62 EP CP AKA 1990-08-11 18:00:00 TS 13.4000 188.700 35 hurdat_epa main 1551 1551 O_____________ hurdat_epa CP011990 13.4000 -171.300 TS 35 0 12 288
1990219N10214 1990 62 EP CP AKA 1990-08-11 21:00:00 TS 13.6000 188.100 main 1587 1587 P_____________ CP011990 13.6000 -171.900 TS 35 0 12 289
1990219N10214 1990 62 EP CP AKA 1990-08-12 00:00:00 TS 13.8000 187.500 35 hurdat_epa main 1625 1625 O_____________ hurdat_epa CP011990 13.8000 -172.500 TS 35 0 12 288
1990219N10214 1990 62 EP CP AKA 1990-08-12 03:00:00 TS 13.9648 186.950 main 1665 1665 P_____________ CP011990 13.9648 -173.050 TS 35 0 11 286
1990219N10214 1990 62 EP CP AKA 1990-08-12 06:00:00 TS 14.1000 186.400 35 hurdat_epa main 1704 1704 O_____________ hurdat_epa CP011990 14.1000 -173.600 TS 35 0 11 282
1990219N10214 1990 62 EP CP AKA 1990-08-12 09:00:00 TS 14.1980 185.811 main 1752 1752 P_____________ CP011990 14.1999 -174.193 TS 37 0 12 280
1990219N10214 1990 62 EP CP AKA 1990-08-12 12:00:00 TS 14.3000 185.200 40 hurdat_epa main 1802 1802 O_____________ hurdat_epa CP011990 14.3000 -174.800 TS 40 0 12 283
1990219N10214 1990 62 EP CP AKA 1990-08-12 15:00:00 TS 14.4564 184.616 main 1847 1847 P_____________ CP011990 14.4419 -175.355 TS 42 0 13 285
1990219N10214 1990 62 EP CP AKA 1990-08-12 18:00:00 TS 14.6250 183.950 45 hurdat_epa main 1907 1907 O_____________ hurdat_epa CP011990 14.6000 -176.000 TS 45 0 15 282
1990219N10214 1990 62 EP CP AKA 1990-08-12 21:00:00 TS 14.7796 183.101 main 1973 1973 P_____________ CP011990 14.7653 -176.870 TS 45 0 17 279
1990219N10214 1990 62 EP CP AKA 1990-08-13 00:00:00 TS 14.9000 182.200 45 hurdat_epa main 2056 2056 O_____________ hurdat_epa CP011990 14.9000 -177.800 TS 45 0 17 276
1990219N10214 1990 62 EP CP AKA 1990-08-13 03:00:00 TS 14.9699 181.343 main 2139 2139 P_____________ CP011990 14.9729 -178.765 TS 45 0 16 273
1990219N10214 1990 62 EP CP AKA 1990-08-13 06:00:00 TS 14.9750 180.562 45 hurdat_epa main 2207 2207 OOOO__________ hurdat_epa CP011990 15.0000 -179.400 TS 45 0 14.8000 180.600 7 45 992 0 9 100 100 0 14.8000 180.600 2 38 992 15.0000 180.000 TS 35 995 13 270
1990219N10214 1990 62 WP MM AKA 1990-08-13 09:00:00 TS 14.9686 179.977 main 2266 2266 PPPP__________ CP011990 15.0055 -179.058 TS 42 0 14.8357 179.745 7 42 993 0 9 100 100 14.8357 179.745 2 38 993 15.0055 179.253 TS 32 997 12 270
1990219N10214 1990 62 WP MM AKA 1990-08-13 12:00:00 TS 14.9714 179.281 40 hurdat_epa main 2336 2336 OOOO__________ hurdat_epa CP011990 15.0000 -179.000 TS 40 0 14.9000 178.900 3 40 994 0 9 100 100 0 14.9000 178.900 2 38 994 15.0000 178.500 TD 30 1000 16 271
1990219N10214 1990 62 WP MM AKA 1990-08-13 15:00:00 TS 14.9967 178.307 main 2435 2435 PPPP__________ CP011990 14.9976 179.422 TS 40 0 15.0070 178.065 3 40 994 0 9 90 90 15.0070 178.065 2 38 994 14.9848 177.742 TD 32 997 19 272
1990219N10214 1990 62 WP MM AKA 1990-08-13 18:00:00 TS 15.0333 177.317 40 994 tokyo main 2535 2535 OOOO__________ hurdat_epa CP011990 15.0000 177.500 TS 40 0 15.1000 177.200 3 40 994 0 9 80 80 0 15.1000 177.200 2 38 994 15.0000 177.000 TS 35 995 19 272
1990219N10214 1990 62 WP MM AKA 1990-08-13 21:00:00 TS 15.0510 176.374 main 2621 2621 PPPP__________ CP011990 15.0253 176.415 TS 37 0 15.0854 176.212 3 37 995 0 9 77 77 15.0854 176.212 2 38 995 15.0548 176.277 TS 32 997 18 273
1990219N10214 1990 62 WP MM AKA 1990-08-14 00:00:00 TS 15.1167 175.500 35 996 tokyo main 2711 2711 OOOO__________ hurdat_epa CP011990 15.1000 175.600 TS 35 0 15.1000 175.300 3 35 996 0 9 75 75 0 15.1000 175.300 2 38 996 15.2000 175.600 TD 30 1000 16 278
1990219N10214 1990 62 WP MM AKA 1990-08-14 03:00:00 TS 15.2729 174.740 main 2785 2785 PPPP__________ CP011990 15.2195 174.735 TS 35 0 15.2619 174.633 3 35 997 0 9 75 75 15.2619 174.633 2 38 997 15.4772 174.985 TD 27 1000 15 285
1990219N10214 1990 62 WP MM AKA 1990-08-14 06:00:00 TS 15.5000 174.050 35 998 tokyo main 2838 2838 OOOO__________ hurdat_epa CP011990 15.4000 173.900 TS 35 0 15.5000 174.100 3 35 998 0 9 75 75 0 15.5000 174.100 2 38 998 15.8000 174.400 TD 25 1000 14 291
1990219N10214 1990 62 WP MM AKA 1990-08-14 09:00:00 TS 15.7848 173.356 main 2899 2899 PPPP__________ CP011990 15.6426 173.013 TS 35 0 15.7722 173.593 3 35 999 0 9 67 67 15.7722 173.593 2 33 999 16.0798 173.800 TD 25 1000 14 292
1990219N10214 1990 62 WP MM AKA 1990-08-14 12:00:00 TS 16.0391 172.678 35 1000 tokyo main 2963 2963 OOOO__________ hurdat_epa CP011990 15.9000 172.200 TS 35 0 16.0000 173.100 3 35 1000 0 9 60 60 0 16.0000 173.100 1 29 1000 16.3000 173.200 TD 25 1000 13 287
1990219N10214 1990 62 WP MM AKA 1990-08-14 15:00:00 TS 16.1827 172.039 main 3019 3001 PPPP__________ CP011990 16.1145 171.562 TS 35 0 16.0799 172.557 3 1002 0 9 16.0799 172.557 1 26 1002 16.4278 172.600 TD 25 1000 13 281
1990219N10214 1990 62 WP MM AKA 1990-08-14 18:00:00 TS 16.2895 171.368 1004 tokyo main 3003 2984 OOOO__________ hurdat_epa CP011990 16.3000 171.000 TS 35 0 16.1000 172.000 2 1004 0 0 0 16.1000 172.000 1 23 1004 16.5000 172.000 TD 25 1000 14 280
1990219N10214 1990 62 WP MM AKA 1990-08-14 21:00:00 TS 16.4124 170.653 main 2984 2966 PPP___________ CP011990 16.4724 170.393 TS 35 0 16.1403 171.448 2 1006 0 0 16.1403 171.448 1 21 1005 TD 14 281
1990219N10214 1990 62 WP MM AKA 1990-08-15 00:00:00 TS 16.5429 169.957 1008 tokyo main 2966 2926 OOO___________ hurdat_epa CP011990 16.6000 169.800 TS 35 0 16.2000 170.900 2 1008 0 0 0 16.2000 170.900 0 19 1006 14 280
1990219N10214 1990 62 WP MM AKA 1990-08-15 03:00:00 TS 16.6599 169.235 main 2928 2895 P_____________ CP011990 16.6649 169.235 TS 32 -1 2 0 0 0 12 277
1990219N10214 1990 62 WP MM AKA 1990-08-15 06:00:00 TS 16.7000 168.700 main 2895 2861 O_____________ hurdat_epa CP011990 16.7000 168.700 TD 30 -1 10 275
1990219N10214 1990 62 WP MM AKA 1990-08-15 09:00:00 TS 16.7469 168.193 main 2861 2836 P_____________ CP011990 16.7452 168.193 TD 27 -1 10 276
1990219N10214 1990 62 WP MM AKA 1990-08-15 12:00:00 TS 16.8000 167.700 main 2836 O_____________ hurdat_epa CP011990 16.8000 167.700 TD 25 -1 10 276

IBTrACS Databaseについて

本データベースは、米国NOAAが公開する1842年以降の世界の熱帯低気圧のベストトラックデータアーカイブInternational Best Track Archive for Climate Stewardship (IBTrACS)を、ウェブで閲覧しやすい形式に変換したものです。

最終更新日:2021-12-03